Time;durP1;ratioP1;P1;durP2;ratioP2;P2;SDS_P1;SDS_P2;PMS_P1;PMS_P2;Temp;Humidity;BMP_temperature;BMP_pressure;BME280_temperature;BME280_humidity;BME280_pressure;Samples;Min_cycle;Max_cycle;Signal;HPM_P1;HPM_P2
2023/10/26 00:01:16;;;;;;;0.25;0.25;;;12.30;99.90;;;;;;5010448;28;20029;-78
2023/10/26 00:03:42;;;;;;;0.30;0.30;;;12.20;99.90;;;;;;4999080;28;20038;-78
2023/10/26 00:06:07;;;;;;;0.35;0.35;;;12.30;99.90;;;;;;5013018;28;20826;-78
2023/10/26 00:08:33;;;;;;;0.30;0.30;;;12.20;99.90;;;;;;4993700;28;20042;-78
2023/10/26 00:11:03;;;;;;;0.32;0.32;;;12.20;99.90;;;;;;4995280;28;20516;-78
2023/10/26 00:13:28;;;;;;;0.30;0.30;;;12.20;99.90;;;;;;5015944;28;20071;-78
2023/10/26 00:15:54;;;;;;;0.40;0.40;;;12.30;99.90;;;;;;5008570;28;20025;-78
2023/10/26 00:18:20;;;;;;;0.50;0.50;;;12.20;99.90;;;;;;4997796;28;20021;-77
2023/10/26 00:20:45;;;;;;;0.20;0.20;;;12.30;99.90;;;;;;5013354;28;20036;-78
2023/10/26 00:23:12;;;;;;;0.80;0.32;;;12.30;99.90;;;;;;5012497;28;20505;-78
2023/10/26 00:25:37;;;;;;;0.32;0.32;;;12.30;99.90;;;;;;5014141;28;20021;-78
2023/10/26 00:28:03;;;;;;;0.50;0.50;;;12.20;99.90;;;;;;4995481;28;20519;-78
2023/10/26 00:30:28;;;;;;;0.30;0.30;;;12.30;99.90;;;;;;4997450;28;20034;-78
2023/10/26 00:32:54;;;;;;;0.43;0.43;;;12.20;99.90;;;;;;4996287;28;20017;-79
2023/10/26 00:35:20;;;;;;;0.20;0.20;;;12.20;99.90;;;;;;5000755;28;20116;-79
2023/10/26 00:37:45;;;;;;;0.20;0.20;;;12.20;99.90;;;;;;5011843;28;20026;-78
2023/10/26 00:40:12;;;;;;;0.20;0.20;;;12.20;99.90;;;;;;5012045;28;20628;-78
2023/10/26 00:42:38;;;;;;;0.20;0.20;;;12.20;99.90;;;;;;4995209;28;20128;-78
2023/10/26 00:45:04;;;;;;;0.20;0.20;;;12.20;99.90;;;;;;5010259;28;20112;-78
2023/10/26 00:47:31;;;;;;;1.75;0.80;;;12.20;99.90;;;;;;5013003;28;20161;-78
2023/10/26 00:49:58;;;;;;;0.50;0.50;;;12.20;99.90;;;;;;5013091;28;20053;-78
2023/10/26 00:52:25;;;;;;;0.25;0.25;;;12.20;99.90;;;;;;5013779;28;20500;-78
2023/10/26 00:54:52;;;;;;;0.47;0.47;;;12.20;99.90;;;;;;5000959;28;20351;-78
2023/10/26 00:57:22;;;;;;;0.30;0.30;;;12.20;99.90;;;;;;5015402;28;20167;-78
2023/10/26 00:59:50;;;;;;;0.30;0.30;;;12.20;99.90;;;;;;5012714;28;20064;-78
2023/10/26 01:02:16;;;;;;;0.30;0.30;;;12.20;99.90;;;;;;5009644;28;20018;-77
2023/10/26 01:04:42;;;;;;;0.40;0.40;;;12.20;99.90;;;;;;5001223;28;20052;-78
2023/10/26 01:07:08;;;;;;;0.40;0.40;;;12.20;99.90;;;;;;5009855;28;20060;-78
2023/10/26 01:09:33;;;;;;;0.20;0.20;;;12.20;99.90;;;;;;5009634;28;20038;-78
2023/10/26 01:12:01;;;;;;;0.20;0.20;;;12.20;99.90;;;;;;5008853;28;20024;-78
2023/10/26 01:14:27;;;;;;;0.52;0.52;;;12.20;99.90;;;;;;4996161;28;20551;-78
2023/10/26 01:16:56;;;;;;;0.30;0.30;;;12.10;99.90;;;;;;5010835;28;20105;-78
2023/10/26 01:19:36;;;;;;;0.43;0.43;;;12.20;99.90;;;;;;5013448;28;20544;-78
2023/10/26 01:22:02;;;;;;;1.30;0.85;;;12.20;99.90;;;;;;4995962;28;20030;-79
2023/10/26 01:24:27;;;;;;;0.30;0.30;;;12.20;99.90;;;;;;4995585;28;20064;-77
2023/10/26 01:26:55;;;;;;;0.30;0.30;;;12.20;99.90;;;;;;5011006;28;20101;-78
2023/10/26 01:29:21;;;;;;;0.30;0.30;;;12.20;99.90;;;;;;4995324;28;20036;-78
2023/10/26 01:31:47;;;;;;;0.50;0.50;;;12.10;99.90;;;;;;5011056;28;20105;-78
2023/10/26 01:34:13;;;;;;;0.60;0.60;;;12.10;99.90;;;;;;4993969;28;20037;-78
2023/10/26 01:36:39;;;;;;;0.40;0.40;;;12.20;99.90;;;;;;5009515;28;20017;-77
2023/10/26 01:39:05;;;;;;;0.22;0.22;;;12.10;99.90;;;;;;5012060;28;20018;-78
2023/10/26 01:41:32;;;;;;;0.30;0.30;;;12.10;99.90;;;;;;5007812;28;20789;-78
2023/10/26 01:43:58;;;;;;;0.38;0.38;;;12.00;99.90;;;;;;4994526;28;20042;-78
2023/10/26 01:46:23;;;;;;;0.40;0.40;;;12.00;99.90;;;;;;4994707;28;20025;-77
2023/10/26 01:48:49;;;;;;;0.43;0.43;;;11.90;99.90;;;;;;4991576;28;20436;-78
2023/10/26 01:51:15;;;;;;;0.57;0.57;;;12.00;99.90;;;;;;4994937;28;20470;-77
2023/10/26 01:53:40;;;;;;;0.50;0.50;;;12.00;99.90;;;;;;4994766;28;20029;-77
2023/10/26 01:56:06;;;;;;;0.22;0.22;;;12.00;99.90;;;;;;5002059;28;20478;-78
2023/10/26 01:58:32;;;;;;;0.20;0.20;;;12.00;99.90;;;;;;5015103;28;20798;-78
2023/10/26 02:00:57;;;;;;;0.80;0.47;;;12.00;99.90;;;;;;5011526;28;20511;-78
2023/10/26 02:03:23;;;;;;;0.57;0.57;;;11.90;99.90;;;;;;5015794;28;20022;-78
2023/10/26 02:05:49;;;;;;;0.32;0.32;;;11.90;99.90;;;;;;4998131;28;20156;-78
2023/10/26 02:08:14;;;;;;;0.50;0.50;;;11.90;99.90;;;;;;5018284;28;20037;-78
2023/10/26 02:10:42;;;;;;;0.30;0.30;;;11.90;99.90;;;;;;5008593;28;20036;-79
2023/10/26 02:13:09;;;;;;;0.20;0.20;;;11.90;99.90;;;;;;5017679;28;20040;-78
2023/10/26 02:15:34;;;;;;;0.30;0.30;;;11.90;99.90;;;;;;5015334;28;20125;-78
2023/10/26 02:18:00;;;;;;;0.43;0.43;;;11.90;99.90;;;;;;5011344;28;20499;-78
2023/10/26 02:20:25;;;;;;;0.40;0.40;;;11.90;99.90;;;;;;5015463;28;20060;-78
2023/10/26 02:22:51;;;;;;;0.40;0.40;;;11.90;99.90;;;;;;5000937;28;20123;-78
2023/10/26 02:25:22;;;;;;;0.30;0.30;;;11.90;99.90;;;;;;5000393;28;20025;-78
2023/10/26 02:27:53;;;;;;;0.50;0.50;;;11.90;99.90;;;;;;5015466;28;20034;-77
2023/10/26 02:30:18;;;;;;;0.55;0.55;;;11.90;99.90;;;;;;5013546;28;20032;-78
2023/10/26 02:32:44;;;;;;;0.20;0.20;;;11.90;99.90;;;;;;5011297;28;20026;-78
2023/10/26 02:35:09;;;;;;;0.30;0.30;;;11.90;99.90;;;;;;5016750;28;20409;-79
2023/10/26 02:37:38;;;;;;;0.32;0.32;;;11.90;99.90;;;;;;4999159;28;20024;-79
2023/10/26 02:40:10;;;;;;;0.30;0.30;;;11.90;99.90;;;;;;5015759;28;20026;-78
2023/10/26 02:42:36;;;;;;;0.57;0.57;;;11.90;99.90;;;;;;5012737;28;20026;-78
2023/10/26 02:45:03;;;;;;;0.73;0.73;;;11.80;99.90;;;;;;5001171;28;20120;-79
2023/10/26 02:47:29;;;;;;;0.38;0.38;;;11.80;99.90;;;;;;5016225;28;20030;-78
2023/10/26 02:49:55;;;;;;;0.20;0.20;;;11.80;99.90;;;;;;5000205;28;20033;-77
2023/10/26 02:52:20;;;;;;;0.47;0.47;;;11.80;99.90;;;;;;5012564;28;20026;-78
2023/10/26 02:54:46;;;;;;;0.50;0.50;;;11.90;99.90;;;;;;4997095;28;20053;-78
2023/10/26 02:57:14;;;;;;;0.30;0.30;;;11.90;99.90;;;;;;4996266;28;20155;-77
2023/10/26 02:59:40;;;;;;;0.30;0.30;;;11.80;99.90;;;;;;5015392;28;20013;-78
2023/10/26 03:02:06;;;;;;;0.55;0.55;;;11.80;99.90;;;;;;5013651;28;20021;-78
2023/10/26 03:04:32;;;;;;;0.85;0.85;;;11.90;99.90;;;;;;5014152;28;20246;-78
2023/10/26 03:06:58;;;;;;;0.20;0.20;;;11.80;99.90;;;;;;5002820;28;20026;-78
2023/10/26 03:09:23;;;;;;;0.20;0.20;;;11.70;99.90;;;;;;5012285;28;20555;-79
2023/10/26 03:11:49;;;;;;;0.30;0.30;;;11.80;99.90;;;;;;4997264;28;20039;-77
2023/10/26 03:14:15;;;;;;;0.20;0.20;;;11.80;99.90;;;;;;5018305;28;20029;-78
2023/10/26 03:16:42;;;;;;;0.20;0.20;;;11.90;99.90;;;;;;5014054;28;20029;-78
2023/10/26 03:19:08;;;;;;;0.20;0.20;;;11.90;99.90;;;;;;5018257;28;20060;-79
2023/10/26 03:21:34;;;;;;;0.20;0.20;;;11.90;99.90;;;;;;5012045;28;20061;-77
2023/10/26 03:23:59;;;;;;;0.20;0.20;;;11.90;99.90;;;;;;5013385;28;20209;-78
2023/10/26 03:26:25;;;;;;;0.20;0.20;;;11.90;99.90;;;;;;5011650;28;20030;-78
2023/10/26 03:28:52;;;;;;;0.15;0.15;;;11.90;99.90;;;;;;5014184;28;20125;-78
2023/10/26 03:31:18;;;;;;;0.30;0.30;;;11.90;99.90;;;;;;5014099;28;20049;-78
2023/10/26 03:33:44;;;;;;;0.20;0.20;;;11.90;99.90;;;;;;5012204;28;20029;-78
2023/10/26 03:36:20;;;;;;;0.60;0.60;;;11.80;99.90;;;;;;4994404;28;20040;-78
2023/10/26 03:38:50;;;;;;;0.45;0.45;;;11.80;99.90;;;;;;5013890;28;20026;-77
2023/10/26 03:41:16;;;;;;;0.45;0.45;;;11.70;99.90;;;;;;5014798;28;20056;-77
2023/10/26 03:43:41;;;;;;;0.77;0.77;;;11.70;99.90;;;;;;5012073;28;20374;-78
2023/10/26 03:46:07;;;;;;;0.45;0.45;;;11.70;99.90;;;;;;4997769;28;20497;-78
2023/10/26 03:48:35;;;;;;;0.17;0.17;;;11.80;99.90;;;;;;5012786;28;20429;-78
2023/10/26 03:51:01;;;;;;;0.40;0.40;;;11.80;99.90;;;;;;5012613;28;20104;-78
2023/10/26 03:53:27;;;;;;;0.50;0.50;;;11.80;99.90;;;;;;5001540;28;20022;-78
2023/10/26 03:55:54;;;;;;;0.30;0.30;;;11.70;99.90;;;;;;4998686;28;20025;-77
2023/10/26 03:58:20;;;;;;;0.40;0.40;;;11.70;99.90;;;;;;5019513;28;20472;-79
2023/10/26 04:00:47;;;;;;;0.50;0.50;;;11.70;99.90;;;;;;5021348;28;20068;-78
2023/10/26 04:03:13;;;;;;;0.90;0.90;;;11.70;99.90;;;;;;5018519;28;20033;-78
2023/10/26 04:05:39;;;;;;;0.68;0.35;;;11.70;99.90;;;;;;4998051;28;20109;-78
2023/10/26 04:08:05;;;;;;;0.38;0.38;;;11.70;99.90;;;;;;5012569;28;20037;-78
2023/10/26 04:10:31;;;;;;;0.55;0.55;;;11.70;99.90;;;;;;4994142;28;20142;-78
2023/10/26 04:12:56;;;;;;;0.35;0.35;;;11.70;99.90;;;;;;4998132;28;20017;-78
2023/10/26 04:15:22;;;;;;;1.10;0.50;;;11.60;99.90;;;;;;5012614;28;20057;-77
2023/10/26 04:17:50;;;;;;;0.20;0.20;;;11.60;99.90;;;;;;5015276;28;20033;-79
2023/10/26 04:20:16;;;;;;;0.43;0.30;;;11.60;99.90;;;;;;5006052;28;20132;-78
2023/10/26 04:22:41;;;;;;;0.20;0.20;;;11.50;99.90;;;;;;4996581;28;20662;-78
2023/10/26 04:25:07;;;;;;;0.85;0.57;;;11.50;99.90;;;;;;5019109;28;20036;-77
2023/10/26 04:27:33;;;;;;;0.60;0.60;;;11.50;99.90;;;;;;5012814;28;20038;-78
2023/10/26 04:29:59;;;;;;;0.20;0.20;;;11.60;99.90;;;;;;5012725;28;20026;-78
2023/10/26 04:32:24;;;;;;;0.80;0.80;;;11.60;99.90;;;;;;5012238;28;20068;-78
2023/10/26 04:34:50;;;;;;;0.35;0.35;;;11.50;99.90;;;;;;5012232;28;20034;-78
2023/10/26 04:37:18;;;;;;;0.32;0.32;;;11.50;99.90;;;;;;4994327;28;20079;-77
2023/10/26 04:39:44;;;;;;;0.20;0.20;;;11.50;99.90;;;;;;5013704;28;20034;-78
2023/10/26 04:42:11;;;;;;;0.80;0.80;;;11.50;99.90;;;;;;4996271;28;20503;-78
2023/10/26 04:44:37;;;;;;;1.35;0.30;;;11.40;99.90;;;;;;4995839;28;20033;-78
2023/10/26 04:47:03;;;;;;;0.50;0.50;;;11.40;99.90;;;;;;5013257;28;20646;-78
2023/10/26 04:49:28;;;;;;;0.40;0.40;;;11.40;99.90;;;;;;5010914;28;20561;-78
2023/10/26 04:51:54;;;;;;;0.60;0.60;;;11.50;99.90;;;;;;5015567;28;20013;-78
2023/10/26 04:54:19;;;;;;;0.40;0.40;;;11.40;99.90;;;;;;4996097;28;20091;-78
2023/10/26 04:56:45;;;;;;;0.20;0.20;;;11.50;99.90;;;;;;5010500;28;20089;-79
2023/10/26 04:59:12;;;;;;;0.20;0.20;;;11.50;99.90;;;;;;5001471;28;20441;-78
2023/10/26 05:01:38;;;;;;;0.57;0.57;;;11.50;99.90;;;;;;4995749;28;20128;-78
2023/10/26 05:04:06;;;;;;;0.80;0.80;;;11.50;99.90;;;;;;4995913;28;20033;-78
2023/10/26 05:06:33;;;;;;;0.77;0.60;;;11.40;99.90;;;;;;5008797;28;20033;-78
2023/10/26 05:08:58;;;;;;;0.70;0.70;;;11.40;99.90;;;;;;5008674;28;20041;-78
2023/10/26 05:11:24;;;;;;;0.20;0.20;;;11.40;99.90;;;;;;5009859;28;20059;-78
2023/10/26 05:13:52;;;;;;;0.40;0.40;;;11.40;99.90;;;;;;5008672;28;20110;-78
2023/10/26 05:16:18;;;;;;;1.38;0.57;;;11.40;99.90;;;;;;5012245;28;20096;-78
2023/10/26 05:18:44;;;;;;;1.05;0.85;;;11.40;99.90;;;;;;5013436;28;20052;-78
2023/10/26 05:21:10;;;;;;;0.45;0.45;;;11.50;99.90;;;;;;4995137;28;20062;-77
2023/10/26 05:23:35;;;;;;;0.40;0.40;;;11.50;99.90;;;;;;5012558;28;20499;-78
2023/10/26 05:26:01;;;;;;;0.65;0.65;;;11.50;99.90;;;;;;5012228;28;20430;-78
2023/10/26 05:28:27;;;;;;;0.50;0.50;;;11.50;99.90;;;;;;5010575;28;20040;-78
2023/10/26 05:30:53;;;;;;;0.52;0.52;;;11.40;99.90;;;;;;5014169;28;20029;-78
2023/10/26 05:33:18;;;;;;;0.45;0.45;;;11.40;99.90;;;;;;4990357;28;20030;-78
2023/10/26 05:35:44;;;;;;;0.45;0.45;;;11.40;99.90;;;;;;5012447;28;20450;-78
2023/10/26 05:38:10;;;;;;;0.25;0.25;;;11.50;99.90;;;;;;5012500;28;20025;-77
2023/10/26 05:40:36;;;;;;;0.73;0.73;;;11.50;99.90;;;;;;5011001;28;20026;-77
2023/10/26 05:43:02;;;;;;;0.82;0.82;;;11.30;99.90;;;;;;4999318;28;20041;-78
2023/10/26 05:45:29;;;;;;;0.20;0.20;;;11.30;99.90;;;;;;5008099;28;20450;-78
2023/10/26 05:47:55;;;;;;;0.40;0.40;;;11.30;99.90;;;;;;5009961;28;20142;-77
2023/10/26 05:50:21;;;;;;;0.32;0.32;;;11.30;99.90;;;;;;5008250;28;20029;-79
2023/10/26 05:52:47;;;;;;;0.40;0.40;;;11.20;99.90;;;;;;5010339;28;20022;-77
2023/10/26 05:55:13;;;;;;;0.52;0.52;;;11.30;99.90;;;;;;4990081;28;20060;-78
2023/10/26 05:57:39;;;;;;;1.17;0.73;;;11.20;99.90;;;;;;5007447;28;20510;-78
2023/10/26 06:00:06;;;;;;;0.47;0.47;;;11.30;99.90;;;;;;5011030;28;20025;-78
2023/10/26 06:02:32;;;;;;;0.70;0.68;;;11.40;99.90;;;;;;4993924;28;20044;-77
2023/10/26 06:04:58;;;;;;;0.40;0.40;;;11.40;99.90;;;;;;5008501;28;20022;-78
2023/10/26 06:07:26;;;;;;;0.35;0.35;;;11.40;99.90;;;;;;5000573;28;20121;-78
2023/10/26 06:09:52;;;;;;;0.40;0.40;;;11.40;99.90;;;;;;5015344;28;20033;-78
2023/10/26 06:12:18;;;;;;;0.40;0.40;;;11.40;99.90;;;;;;5015111;28;20083;-77
2023/10/26 06:14:44;;;;;;;0.68;0.68;;;11.40;99.90;;;;;;5010924;28;20037;-78
2023/10/26 06:17:10;;;;;;;0.43;0.43;;;11.40;99.90;;;;;;5010250;28;20029;-78
2023/10/26 06:19:38;;;;;;;0.30;0.30;;;11.40;99.90;;;;;;5010647;28;20014;-77
2023/10/26 06:22:04;;;;;;;1.00;0.40;;;11.40;99.90;;;;;;5007642;28;20667;-78
2023/10/26 06:24:29;;;;;;;0.35;0.35;;;11.40;99.90;;;;;;4993546;28;20030;-78
2023/10/26 06:26:55;;;;;;;0.30;0.30;;;11.40;99.90;;;;;;5009649;28;20048;-78
2023/10/26 06:29:21;;;;;;;0.32;0.32;;;11.50;99.90;;;;;;5012620;28;20056;-78
2023/10/26 06:31:46;;;;;;;0.40;0.40;;;11.50;99.90;;;;;;5015799;28;20473;-77
2023/10/26 06:34:12;;;;;;;0.40;0.40;;;11.50;99.90;;;;;;5011104;28;20104;-78
2023/10/26 06:36:37;;;;;;;0.20;0.20;;;11.40;99.90;;;;;;4992812;28;20576;-78
2023/10/26 06:39:03;;;;;;;0.60;0.60;;;11.40;99.90;;;;;;4989866;28;20432;-78
2023/10/26 06:41:29;;;;;;;0.45;0.45;;;11.40;99.90;;;;;;5010421;28;20454;-78
2023/10/26 06:43:55;;;;;;;0.47;0.45;;;11.50;99.90;;;;;;5013756;28;20045;-78
2023/10/26 06:46:21;;;;;;;0.20;0.20;;;11.50;99.90;;;;;;4996987;28;20454;-78
2023/10/26 06:48:47;;;;;;;0.25;0.25;;;11.60;99.90;;;;;;5013797;28;20083;-78
2023/10/26 06:51:13;;;;;;;0.40;0.40;;;11.50;99.90;;;;;;5010673;28;20621;-78
2023/10/26 06:53:38;;;;;;;0.55;0.55;;;11.50;99.90;;;;;;5013044;28;20021;-77
2023/10/26 06:56:11;;;;;;;0.60;0.50;;;11.60;99.90;;;;;;5012532;28;20100;-77
2023/10/26 06:58:37;;;;;;;;;;;11.50;99.90;;;;;;5016847;28;20030;-78
2023/10/26 07:01:08;;;;;;;0.45;0.45;;;11.50;99.90;;;;;;4997383;28;19975;-79
2023/10/26 07:03:34;;;;;;;0.30;0.30;;;11.50;99.90;;;;;;5013383;28;20096;-78
2023/10/26 07:06:03;;;;;;;0.70;0.70;;;11.50;99.90;;;;;;5015588;28;20022;-78
2023/10/26 07:08:31;;;;;;;0.50;0.50;;;11.50;99.90;;;;;;5014862;28;20041;-78
2023/10/26 07:10:56;;;;;;;0.50;0.50;;;11.50;99.90;;;;;;4999882;28;20033;-78
2023/10/26 07:13:22;;;;;;;0.70;0.70;;;11.40;99.90;;;;;;5000268;28;20022;-78
2023/10/26 07:15:47;;;;;;;0.57;0.57;;;11.40;99.90;;;;;;5013561;28;20437;-78
2023/10/26 07:18:15;;;;;;;0.55;0.50;;;11.50;99.90;;;;;;5011461;28;20100;-78
2023/10/26 07:20:41;;;;;;;0.47;0.40;;;11.50;99.90;;;;;;5013297;28;20032;-80
2023/10/26 07:23:07;;;;;;;0.28;0.28;;;11.50;99.90;;;;;;4996434;28;20018;-78
2023/10/26 07:25:36;;;;;;;0.93;0.82;;;11.60;99.90;;;;;;5014177;28;20061;-78
2023/10/26 07:28:02;;;;;;;0.45;0.45;;;11.60;99.90;;;;;;4997507;28;20073;-78
2023/10/26 07:30:28;;;;;;;0.60;0.60;;;11.70;99.90;;;;;;5012177;28;20046;-78
2023/10/26 07:32:53;;;;;;;0.90;0.90;;;11.60;99.90;;;;;;5012555;28;20508;-78
2023/10/26 07:35:19;;;;;;;0.52;0.52;;;11.50;99.90;;;;;;5001670;28;20037;-80
2023/10/26 07:37:45;;;;;;;0.85;0.85;;;11.50;99.90;;;;;;5014008;28;20013;-81
2023/10/26 07:40:11;;;;;;;0.65;0.55;;;11.70;99.90;;;;;;5014329;28;20025;-80
2023/10/26 07:42:37;;;;;;;0.50;0.50;;;11.60;99.90;;;;;;5014020;28;20084;-79
2023/10/26 07:45:03;;;;;;;0.50;0.50;;;11.70;99.90;;;;;;4997705;28;20040;-80
2023/10/26 07:47:29;;;;;;;0.28;0.28;;;11.70;99.90;;;;;;5013590;28;20029;-79
2023/10/26 07:49:54;;;;;;;0.40;0.40;;;11.80;99.90;;;;;;5016562;28;20032;-80
2023/10/26 07:52:20;;;;;;;2.05;0.75;;;11.80;99.90;;;;;;5010610;28;20276;-79
2023/10/26 07:54:46;;;;;;;0.10;0.10;;;12.00;99.90;;;;;;5011264;28;20029;-81
2023/10/26 07:57:12;;;;;;;0.38;0.38;;;11.90;99.90;;;;;;5002371;28;20441;-80
2023/10/26 07:59:37;;;;;;;0.50;0.50;;;11.90;99.90;;;;;;4996540;28;20109;-79
2023/10/26 08:02:03;;;;;;;1.02;0.30;;;11.90;99.90;;;;;;5013449;28;20113;-79
2023/10/26 08:04:32;;;;;;;0.32;0.32;;;11.90;99.90;;;;;;5014067;28;20022;-80
2023/10/26 08:06:58;;;;;;;0.57;0.57;;;12.00;99.90;;;;;;5010745;28;20026;-79
2023/10/26 08:09:25;;;;;;;0.70;0.70;;;12.10;99.90;;;;;;5010723;28;20037;-80
2023/10/26 08:11:51;;;;;;;0.30;0.30;;;12.10;99.90;;;;;;5002353;28;20021;-79
2023/10/26 08:14:17;;;;;;;0.30;0.30;;;12.10;99.90;;;;;;4998775;28;20029;-80
2023/10/26 08:16:42;;;;;;;0.60;0.60;;;12.20;99.90;;;;;;5011509;28;20493;-77
2023/10/26 08:19:08;;;;;;;0.38;0.38;;;12.30;99.90;;;;;;5012070;28;20021;-77
2023/10/26 08:21:33;;;;;;;0.63;0.63;;;12.30;99.90;;;;;;5012557;28;20040;-79
2023/10/26 08:23:59;;;;;;;0.40;0.40;;;12.20;99.90;;;;;;5017197;28;20018;-78
2023/10/26 08:26:25;;;;;;;0.40;0.40;;;12.30;99.90;;;;;;5011223;28;20485;-77
2023/10/26 08:28:50;;;;;;;0.30;0.30;;;12.30;99.90;;;;;;5007972;28;20040;-78
2023/10/26 08:31:16;;;;;;;0.35;0.35;;;12.40;99.90;;;;;;5017527;28;20040;-77
2023/10/26 08:33:41;;;;;;;0.75;0.40;;;12.40;99.90;;;;;;5011792;28;20034;-78
2023/10/26 08:36:07;;;;;;;0.50;0.50;;;12.50;99.90;;;;;;5010621;28;20032;-78
2023/10/26 08:38:33;;;;;;;0.90;0.90;;;12.70;99.90;;;;;;5013703;28;20026;-78
2023/10/26 08:40:58;;;;;;;0.35;0.35;;;12.70;99.90;;;;;;4996201;28;20561;-78
2023/10/26 08:43:24;;;;;;;0.52;0.52;;;12.70;99.90;;;;;;4993290;28;20029;-77
2023/10/26 08:45:52;;;;;;;0.43;0.40;;;12.70;99.90;;;;;;4996828;28;20072;-79
2023/10/26 08:48:19;;;;;;;0.20;0.20;;;12.70;99.90;;;;;;5015018;28;20538;-79
2023/10/26 08:50:48;;;;;;;0.70;0.70;;;12.70;99.90;;;;;;5011993;28;20021;-78
2023/10/26 08:53:18;;;;;;;0.40;0.30;;;12.80;99.90;;;;;;5014393;28;20124;-79
2023/10/26 08:55:43;;;;;;;0.55;0.55;;;12.80;99.90;;;;;;5011056;28;20160;-79
2023/10/26 08:58:09;;;;;;;0.38;0.38;;;12.70;99.90;;;;;;4994570;28;20132;-77
2023/10/26 09:00:40;;;;;;;0.85;0.85;;;12.80;99.90;;;;;;5020955;28;20025;-80
2023/10/26 09:03:06;;;;;;;0.50;0.50;;;12.90;99.90;;;;;;5014705;28;20030;-79
2023/10/26 09:05:32;;;;;;;0.95;0.77;;;12.80;99.90;;;;;;4998401;28;20018;-78
2023/10/26 09:07:57;;;;;;;0.35;0.35;;;12.80;99.90;;;;;;4993778;28;20073;-79
2023/10/26 09:10:30;;;;;;;0.20;0.20;;;12.80;99.90;;;;;;5009011;28;20040;-78
2023/10/26 09:13:00;;;;;;;;;;;12.90;99.90;;;;;;5011919;28;20039;-78
2023/10/26 09:15:26;;;;;;;0.32;0.32;;;12.80;99.90;;;;;;4993613;28;20406;-79
2023/10/26 09:17:57;;;;;;;0.98;0.47;;;12.80;99.90;;;;;;4996146;28;20036;-77
2023/10/26 09:20:23;;;;;;;0.65;0.65;;;12.90;99.90;;;;;;5008884;28;20034;-77
2023/10/26 09:22:49;;;;;;;0.70;0.70;;;12.80;99.90;;;;;;4994973;28;20124;-78
2023/10/26 09:25:15;;;;;;;0.68;0.68;;;12.80;99.90;;;;;;5014803;28;20143;-78
2023/10/26 09:27:42;;;;;;;0.75;0.40;;;12.80;99.90;;;;;;5011875;28;20037;-78
2023/10/26 09:30:31;;;;;;;0.40;0.40;;;12.80;99.90;;;;;;5009138;28;20430;-78
2023/10/26 09:32:59;;;;;;;1.15;0.30;;;12.70;99.90;;;;;;5011024;28;20667;-77
2023/10/26 09:35:29;;;;;;;0.55;0.20;;;12.40;99.90;;;;;;4999403;28;20470;-77
2023/10/26 09:37:55;;;;;;;0.80;0.80;;;12.50;99.90;;;;;;5007589;28;20257;-77
2023/10/26 09:40:25;;;;;;;4.65;0.95;;;12.50;99.90;;;;;;5008417;28;20096;-78
2023/10/26 09:42:51;;;;;;;0.10;0.10;;;12.50;99.90;;;;;;5004829;28;20108;-78
2023/10/26 09:45:18;;;;;;;0.85;0.85;;;12.50;99.90;;;;;;4995272;28;20823;-78
2023/10/26 09:47:45;;;;;;;9.45;0.57;;;12.40;99.90;;;;;;4990520;28;20041;-78
2023/10/26 09:50:11;;;;;;;0.30;0.30;;;12.30;99.90;;;;;;5011786;28;20030;-79
2023/10/26 09:52:37;;;;;;;0.22;0.22;;;12.30;99.90;;;;;;5007852;28;20539;-79
2023/10/26 09:55:06;;;;;;;0.20;0.20;;;12.20;99.90;;;;;;4993200;28;20488;-76
2023/10/26 09:57:38;;;;;;;0.20;0.20;;;11.90;99.90;;;;;;4991837;28;20021;-77
2023/10/26 10:00:10;;;;;;;0.63;0.63;;;12.10;99.90;;;;;;4994403;28;20044;-78
2023/10/26 10:02:36;;;;;;;0.28;0.28;;;12.20;99.90;;;;;;4992887;28;20037;-79
2023/10/26 10:05:01;;;;;;;0.45;0.32;;;12.10;99.90;;;;;;4992481;28;20368;-78
2023/10/26 10:07:40;;;;;;;0.50;0.50;;;12.10;99.90;;;;;;4998923;28;20029;-78
2023/10/26 10:10:15;;;;;;;0.38;0.38;;;12.20;99.90;;;;;;4995546;28;20555;-78
2023/10/26 10:12:42;;;;;;;0.38;0.38;;;12.20;99.90;;;;;;5011941;28;20025;-77
2023/10/26 10:15:09;;;;;;;0.45;0.45;;;12.20;99.90;;;;;;5010524;28;20028;-78
2023/10/26 10:17:44;;;;;;;0.35;0.35;;;12.30;99.90;;;;;;5008632;28;20508;-78
2023/10/26 10:20:18;;;;;;;0.20;0.20;;;12.50;99.90;;;;;;4996796;28;20084;-77
2023/10/26 10:22:44;;;;;;;0.57;0.57;;;12.60;99.90;;;;;;5012339;28;20139;-79
2023/10/26 10:25:10;;;;;;;0.30;0.30;;;12.70;99.90;;;;;;5016106;28;20437;-78
2023/10/26 10:27:48;;;;;;;0.40;0.40;;;12.70;99.90;;;;;;5011510;28;20025;-78
2023/10/26 10:30:16;;;;;;;0.43;0.43;;;12.80;99.90;;;;;;4993618;28;20308;-78
2023/10/26 10:35:33;;;;;;;0.20;0.20;;;12.90;99.90;;;;;;5007649;28;20033;-78
2023/10/26 10:38:11;;;;;;;0.80;0.80;;;13.00;99.90;;;;;;5010421;28;20061;-78
2023/10/26 10:40:38;;;;;;;0.30;0.30;;;13.10;99.90;;;;;;4995118;28;20028;-78
2023/10/26 10:43:04;;;;;;;0.88;0.88;;;13.20;99.90;;;;;;5012394;28;20029;-77
2023/10/26 10:45:30;;;;;;;0.35;0.35;;;13.10;99.90;;;;;;5014665;28;20072;-78
2023/10/26 10:47:57;;;;;;;0.52;0.52;;;13.10;99.90;;;;;;4996985;28;20057;-78
2023/10/26 10:50:24;;;;;;;2.33;0.55;;;13.30;99.90;;;;;;5008881;28;20061;-78
2023/10/26 10:52:54;;;;;;;0.80;0.80;;;13.50;99.90;;;;;;5010056;28;20049;-78
2023/10/26 10:55:26;;;;;;;0.77;0.77;;;13.70;99.90;;;;;;5011077;28;20075;-77
2023/10/26 10:57:58;;;;;;;0.40;0.40;;;13.80;99.90;;;;;;4995872;28;20030;-78
2023/10/26 11:00:45;;;;;;;0.20;0.20;;;13.90;99.90;;;;;;4992653;28;20026;-78
2023/10/26 11:03:23;;;;;;;0.30;0.30;;;14.00;99.90;;;;;;5011329;28;20033;-77
2023/10/26 11:05:50;;;;;;;0.52;0.30;;;14.00;99.90;;;;;;5009213;28;20150;-79
2023/10/26 11:08:15;;;;;;;0.25;0.25;;;14.00;99.90;;;;;;4996097;28;20489;-79
2023/10/26 11:10:48;;;;;;;0.52;0.52;;;13.90;99.90;;;;;;5010855;28;20135;-79
2023/10/26 11:13:21;;;;;;;0.25;0.25;;;13.80;99.90;;;;;;5012257;28;20022;-77
2023/10/26 11:15:48;;;;;;;;;;;13.90;99.90;;;;;;5019616;28;20060;-78
2023/10/26 11:18:14;;;;;;;0.40;0.40;;;13.90;99.90;;;;;;5006531;28;19913;-78
2023/10/26 11:20:42;;;;;;;0.68;0.68;;;13.80;99.90;;;;;;5005869;28;20541;-78
2023/10/26 11:23:09;;;;;;;0.52;0.52;;;13.90;99.90;;;;;;5015349;28;20040;-78
2023/10/26 11:25:35;;;;;;;0.25;0.25;;;14.00;99.90;;;;;;4996230;28;20535;-79
2023/10/26 11:28:03;;;;;;;0.70;0.70;;;14.10;99.90;;;;;;5010955;28;20083;-79
2023/10/26 11:30:35;;;;;;;1.27;0.45;;;14.10;99.90;;;;;;5003760;28;20036;-79
2023/10/26 11:33:07;;;;;;;0.43;0.43;;;14.10;99.90;;;;;;4994240;28;20028;-79
2023/10/26 11:35:42;;;;;;;0.22;0.22;;;13.90;99.90;;;;;;5009758;28;20498;-78
2023/10/26 11:38:07;;;;;;;0.40;0.40;;;13.80;99.90;;;;;;5003894;28;20572;-78
2023/10/26 11:40:33;;;;;;;0.30;0.30;;;13.80;99.90;;;;;;5005991;28;20132;-78
2023/10/26 11:43:00;;;;;;;0.60;0.60;;;13.90;99.90;;;;;;5013112;28;20056;-78
2023/10/26 11:45:27;;;;;;;0.20;0.20;;;13.80;99.90;;;;;;5004791;28;20018;-78
2023/10/26 11:47:58;;;;;;;1.45;0.65;;;13.60;99.90;;;;;;5009869;28;20044;-79
2023/10/26 11:50:24;;;;;;;0.35;0.35;;;13.30;99.90;;;;;;5005288;28;20104;-78
2023/10/26 11:52:56;;;;;;;2.13;0.30;;;13.20;99.90;;;;;;5007860;28;20026;-77
2023/10/26 11:55:22;;;;;;;0.60;0.60;;;13.40;99.90;;;;;;4992287;28;20461;-74
2023/10/26 11:57:49;;;;;;;0.73;0.73;;;13.50;99.90;;;;;;4998378;28;20058;-78
2023/10/26 12:00:16;;;;;;;0.20;0.20;;;13.40;99.90;;;;;;5009495;28;20329;-78
2023/10/26 12:02:42;;;;;;;0.50;0.50;;;13.50;99.90;;;;;;5008115;28;20014;-78
2023/10/26 12:05:11;;;;;;;0.55;0.55;;;13.40;99.90;;;;;;5009972;28;20112;-78
2023/10/26 12:07:39;;;;;;;0.40;0.40;;;13.40;99.90;;;;;;5007412;28;20065;-78
2023/10/26 12:10:05;;;;;;;0.20;0.20;;;13.30;99.90;;;;;;5011634;28;20067;-78
2023/10/26 12:12:30;;;;;;;0.38;0.38;;;13.30;99.90;;;;;;4992050;28;20493;-79
2023/10/26 12:14:58;;;;;;;0.50;0.50;;;13.30;99.90;;;;;;4990712;28;20126;-78
2023/10/26 12:17:24;;;;;;;0.65;0.60;;;13.20;99.90;;;;;;5009339;28;20026;-78
2023/10/26 12:19:49;;;;;;;2.70;0.40;;;13.20;99.90;;;;;;5008762;28;20264;-77
2023/10/26 12:22:15;;;;;;;0.40;0.40;;;13.10;99.90;;;;;;5007238;28;20453;-78
2023/10/26 12:24:41;;;;;;;0.10;0.10;;;13.00;99.90;;;;;;5008048;28;20033;-78
2023/10/26 12:27:06;;;;;;;0.45;0.45;;;13.10;99.90;;;;;;4992009;28;20034;-79
2023/10/26 12:29:32;;;;;;;1.05;0.93;;;13.20;99.90;;;;;;5012769;28;20076;-78
2023/10/26 12:31:58;;;;;;;0.90;0.90;;;13.30;99.90;;;;;;4995673;28;20064;-79
2023/10/26 12:34:23;;;;;;;0.35;0.35;;;13.30;99.90;;;;;;4996242;28;20025;-77
2023/10/26 12:36:51;;;;;;;0.20;0.20;;;13.10;99.90;;;;;;5009373;28;20030;-78
2023/10/26 12:39:16;;;;;;;0.95;0.90;;;13.10;99.90;;;;;;4991473;28;21028;-79
2023/10/26 12:41:42;;;;;;;1.05;0.40;;;13.30;99.90;;;;;;5006936;28;20512;-78
2023/10/26 12:44:08;;;;;;;0.35;0.35;;;13.30;99.90;;;;;;5010924;28;20113;-78
2023/10/26 12:46:38;;;;;;;0.43;0.43;;;13.30;99.90;;;;;;4995318;28;20032;-79
2023/10/26 12:49:04;;;;;;;1.15;0.47;;;13.10;99.90;;;;;;5006466;28;20397;-78